Time;durP1;ratioP1;P1;durP2;ratioP2;P2;SDS_P1;SDS_P2;PMS_P1;PMS_P2;Temp;Humidity;BMP_temperature;BMP_pressure;BME280_temperature;BME280_humidity;BME280_pressure;Samples;Min_cycle;Max_cycle;Signal;HPM_P1;HPM_P2
2022/07/14 00:00:23;;;;;;;3.75;1.95;;;;;;;20.28;46.81;94393.41;4821632;29;21769;-66
2022/07/14 00:02:50;;;;;;;3.50;2.50;;;;;;;20.24;47.07;94390.00;4822512;29;20058;-64
2022/07/14 00:05:17;;;;;;;4.20;2.40;;;;;;;20.12;46.65;94375.78;4822099;29;20058;-63
2022/07/14 00:07:44;;;;;;;4.18;2.00;;;;;;;19.97;46.41;94379.69;4808097;29;20416;-64
2022/07/14 00:10:11;;;;;;;4.32;2.13;;;;;;;19.87;46.11;94382.47;4821980;29;20058;-64
2022/07/14 00:12:38;;;;;;;3.25;2.00;;;;;;;19.86;46.06;94374.56;4822137;29;20058;-65
2022/07/14 00:15:05;;;;;;;4.45;2.17;;;;;;;19.79;46.03;94370.09;4821953;29;20050;-64
2022/07/14 00:17:32;;;;;;;3.73;1.80;;;;;;;19.74;46.31;94371.50;4822453;29;20047;-64
2022/07/14 00:19:58;;;;;;;3.50;2.10;;;;;;;19.68;46.50;94375.31;4821823;29;20407;-67
2022/07/14 00:22:25;;;;;;;3.42;2.30;;;;;;;19.63;46.47;94370.38;4822023;29;20054;-63
2022/07/14 00:24:54;;;;;;;3.78;2.05;;;;;;;19.55;46.68;94362.31;4822295;29;20047;-63
2022/07/14 00:27:21;;;;;;;3.80;2.65;;;;;;;19.48;46.81;94367.44;4832053;29;20052;-64
2022/07/14 00:29:48;;;;;;;5.97;3.80;;;;;;;19.44;46.74;94367.59;4840219;29;20415;-68
2022/07/14 00:32:15;;;;;;;21.50;13.98;;;;;;;19.43;46.31;94370.81;4839872;29;20049;-66
2022/07/14 00:34:42;;;;;;;5.95;3.35;;;;;;;19.36;46.03;94388.59;4829384;29;20110;-64
2022/07/14 00:37:08;;;;;;;3.40;1.90;;;;;;;19.23;46.37;94394.28;4839560;29;20053;-68
2022/07/14 00:42:48;;;;;;;3.77;1.80;;;;;;;18.62;51.76;94371.66;4813310;29;20667;-65
2022/07/14 00:45:21;;;;;;;4.25;1.67;;;;;;;18.74;51.09;94373.56;4808439;29;20047;-70
2022/07/14 00:47:48;;;;;;;3.58;1.70;;;;;;;18.80;49.89;94375.78;4817864;29;20061;-63
2022/07/14 00:50:17;;;;;;;4.05;1.60;;;;;;;18.86;48.90;94360.81;4820312;29;20050;-65
2022/07/14 00:52:46;;;;;;;3.55;1.80;;;;;;;19.02;48.53;94353.44;4830296;29;20510;-63
2022/07/14 00:55:15;;;;;;;4.80;2.10;;;;;;;18.58;51.40;94350.81;4838538;29;20054;-66
2022/07/14 00:57:42;;;;;;;6.90;4.20;;;;;;;18.47;51.70;94348.41;4828122;29;20050;-63
2022/07/14 01:00:12;;;;;;;4.70;2.63;;;;;;;18.51;51.68;94333.19;4826665;29;20063;-65
2022/07/14 01:02:39;;;;;;;3.88;1.73;;;;;;;18.23;52.62;94312.84;4839767;29;20054;-63
2022/07/14 01:05:07;;;;;;;3.22;2.00;;;;;;;18.29;51.65;94326.88;4839075;29;20054;-64
2022/07/14 01:07:34;;;;;;;3.23;1.70;;;;;;;18.35;51.50;94333.38;4839522;29;20042;-64
2022/07/14 01:10:00;;;;;;;3.33;1.83;;;;;;;18.54;50.31;94337.03;4839314;29;20291;-66
2022/07/14 01:12:27;;;;;;;3.45;1.90;;;;;;;18.63;48.07;94327.94;4838028;29;20068;-64
2022/07/14 01:14:54;;;;;;;4.25;2.10;;;;;;;18.72;48.79;94339.13;4828607;29;20058;-67
2022/07/14 01:17:21;;;;;;;3.45;2.03;;;;;;;18.38;49.59;94335.28;4826315;29;20077;-68
2022/07/14 01:19:48;;;;;;;2.97;1.80;;;;;;;18.54;48.64;94334.25;4839628;29;20049;-63
2022/07/14 01:22:15;;;;;;;4.10;2.00;;;;;;;18.73;48.36;94335.09;4826615;29;20042;-64
2022/07/14 01:24:42;;;;;;;4.70;1.73;;;;;;;18.63;48.98;94325.94;4838907;29;20046;-65
2022/07/14 01:27:09;;;;;;;2.88;1.88;;;;;;;18.56;49.13;94320.69;4839044;29;20487;-64
2022/07/14 01:29:36;;;;;;;2.90;1.85;;;;;;;18.82;48.68;94323.28;4838666;29;20050;-67
2022/07/14 01:32:03;;;;;;;2.93;1.77;;;;;;;18.87;48.80;94326.19;4839262;29;20056;-63
2022/07/14 01:34:29;;;;;;;3.38;1.70;;;;;;;18.83;49.13;94319.25;4830247;29;20061;-63
2022/07/14 01:36:57;;;;;;;3.92;2.30;;;;;;;18.69;49.58;94318.56;4838482;29;20068;-64
2022/07/14 01:39:23;;;;;;;3.58;2.10;;;;;;;18.34;51.46;94321.50;4838977;29;20053;-68
2022/07/14 01:41:50;;;;;;;3.10;1.90;;;;;;;18.07;52.24;94322.16;4839324;29;20045;-64
2022/07/14 01:44:17;;;;;;;3.87;1.80;;;;;;;18.14;52.13;94324.66;4838662;29;20086;-64
2022/07/14 01:46:44;;;;;;;3.00;1.92;;;;;;;18.24;51.57;94325.47;4839518;29;20060;-63
2022/07/14 01:49:12;;;;;;;3.08;1.80;;;;;;;18.15;52.00;94328.22;4839013;29;20090;-63
2022/07/14 01:51:38;;;;;;;4.57;1.92;;;;;;;18.03;52.15;94329.06;4827491;29;20377;-65
2022/07/14 01:54:06;;;;;;;4.05;2.00;;;;;;;18.09;51.99;94322.47;4842464;29;20608;-66
2022/07/14 01:56:39;;;;;;;3.50;1.83;;;;;;;18.11;52.00;94328.34;4842854;29;20411;-69
2022/07/14 01:59:06;;;;;;;4.95;1.80;;;;;;;18.05;52.33;94338.50;4842143;29;20061;-64
2022/07/14 02:01:39;;;;;;;2.92;1.85;;;;;;;18.05;51.98;94327.41;4842748;29;20064;-64
2022/07/14 02:04:12;;;;;;;3.47;2.03;;;;;;;18.06;51.80;94326.16;4842245;29;20050;-63
2022/07/14 02:06:53;;;;;;;4.10;1.90;;;;;;;18.10;51.88;94326.78;4842992;29;20057;-63
2022/07/14 02:09:21;;;;;;;2.80;1.90;;;;;;;18.10;51.68;94318.47;4842206;29;20049;-65
2022/07/14 02:14:34;;;;;;;2.83;1.80;;;;;;;18.07;51.80;94321.38;4841748;29;20962;-63
2022/07/14 02:17:00;;;;;;;5.15;1.90;;;;;;;17.85;51.94;94326.94;4841866;29;20042;-64
2022/07/14 02:19:27;;;;;;;3.08;1.80;;;;;;;17.84;52.26;94319.84;4842466;29;20053;-66
2022/07/14 02:21:55;;;;;;;4.50;1.80;;;;;;;17.78;52.40;94316.84;4811120;29;20061;-64
2022/07/14 02:24:22;;;;;;;2.95;1.70;;;;;;;17.67;52.34;94317.25;4815184;29;20428;-64
2022/07/14 02:26:50;;;;;;;3.95;1.77;;;;;;;17.60;52.59;94309.16;4832844;29;20385;-63
2022/07/14 02:29:18;;;;;;;4.10;2.80;;;;;;;17.55;52.30;94304.22;4833870;29;20201;-67
2022/07/14 02:31:46;;;;;;;72.22;43.92;;;;;;;17.53;51.96;94304.66;4836689;29;20076;-63
2022/07/14 02:34:13;;;;;;;8.60;4.23;;;;;;;17.43;53.30;94299.50;4818155;29;20058;-63
2022/07/14 02:36:41;;;;;;;4.63;2.22;;;;;;;17.24;54.95;94306.88;4842170;29;20057;-63
2022/07/14 02:39:07;;;;;;;3.30;1.90;;;;;;;17.20;54.82;94297.91;4828583;29;20049;-64
2022/07/14 02:41:34;;;;;;;3.63;1.90;;;;;;;17.16;54.61;94304.38;4842029;29;20046;-66
2022/07/14 02:44:01;;;;;;;4.40;2.15;;;;;;;17.11;54.76;94302.16;4841307;29;20070;-65
2022/07/14 02:46:27;;;;;;;3.83;2.30;;;;;;;17.13;54.42;94307.25;4842217;29;20042;-65
2022/07/14 02:48:54;;;;;;;3.65;2.30;;;;;;;17.10;54.04;94297.84;4825784;29;20056;-63
2022/07/14 02:51:21;;;;;;;3.97;2.47;;;;;;;17.06;54.25;94299.19;4825109;29;20443;-64
2022/07/14 02:53:48;;;;;;;4.03;2.30;;;;;;;16.99;54.61;94300.22;4841773;29;20066;-64
2022/07/14 02:56:14;;;;;;;4.55;2.00;;;;;;;16.99;54.72;94293.88;4828207;29;20068;-70
2022/07/14 02:58:41;;;;;;;3.57;1.97;;;;;;;17.01;54.75;94308.84;4841609;29;20083;-66
2022/07/14 03:01:08;;;;;;;3.58;2.00;;;;;;;17.03;54.81;94309.19;4841262;29;20427;-64
2022/07/14 03:03:37;;;;;;;3.50;1.92;;;;;;;16.97;55.08;94308.19;4816635;29;20117;-64
2022/07/14 03:06:15;;;;;;;3.35;2.13;;;;;;;16.99;55.10;94308.53;4841157;29;20065;-64
2022/07/14 03:08:43;;;;;;;2.97;1.90;;;;;;;17.00;55.20;94314.84;4841614;29;20052;-64
2022/07/14 03:11:10;;;;;;;3.80;2.20;;;;;;;16.96;55.21;94312.19;4840983;29;20397;-64
2022/07/14 03:13:38;;;;;;;3.47;1.90;;;;;;;16.94;55.24;94311.84;4841365;29;20553;-64
2022/07/14 03:16:09;;;;;;;4.35;1.90;;;;;;;17.01;55.04;94311.63;4840932;29;20060;-66
2022/07/14 03:18:36;;;;;;;3.80;2.20;;;;;;;17.07;55.00;94315.38;4841435;29;20049;-64
2022/07/14 03:21:11;;;;;;;5.45;2.53;;;;;;;17.01;55.22;94317.16;4822079;29;20382;-64
2022/07/14 03:23:38;;;;;;;5.80;2.70;;;;;;;17.08;55.33;94311.41;4807054;29;20066;-68
2022/07/14 03:26:05;;;;;;;4.28;2.53;;;;;;;17.09;55.26;94309.38;4827817;29;20045;-64
2022/07/14 03:28:32;;;;;;;4.40;2.40;;;;;;;17.10;55.14;94303.41;4822395;29;20377;-69
2022/07/14 03:31:00;;;;;;;3.92;2.40;;;;;;;17.11;54.96;94302.16;4829343;29;20114;-64
2022/07/14 03:33:27;;;;;;;4.18;2.30;;;;;;;17.13;55.19;94305.25;4839730;29;20105;-64
2022/07/14 03:35:53;;;;;;;3.87;2.30;;;;;;;17.06;55.30;94308.25;4840699;29;20649;-64
2022/07/14 03:38:20;;;;;;;4.60;2.70;;;;;;;17.02;55.65;94310.38;4828857;29;20058;-64
2022/07/14 03:41:04;;;;;;;5.00;2.90;;;;;;;17.05;55.67;94294.88;4817521;29;20064;-65
2022/07/14 03:43:33;;;;;;;3.95;2.58;;;;;;;17.08;55.82;94294.75;4841015;29;20050;-65
2022/07/14 03:46:00;;;;;;;5.35;2.83;;;;;;;17.05;55.93;94305.97;4836607;29;20047;-66
2022/07/14 03:48:26;;;;;;;4.47;2.77;;;;;;;16.96;56.57;94304.66;4830009;29;20465;-63
2022/07/14 03:50:53;;;;;;;13.75;3.25;;;;;;;17.01;56.55;94299.75;4840716;29;20050;-64
2022/07/14 03:53:20;;;;;;;6.50;2.90;;;;;;;17.09;56.25;94298.28;4840322;29;20064;-69
2022/07/14 03:55:47;;;;;;;6.32;2.80;;;;;;;17.19;55.75;94296.38;4828609;29;20053;-64
2022/07/14 03:58:18;;;;;;;5.18;2.90;;;;;;;17.31;55.38;94306.66;4815711;29;20100;-65
2022/07/14 04:00:45;;;;;;;4.83;2.87;;;;;;;17.41;55.22;94311.03;4840692;29;20049;-69
2022/07/14 04:03:12;;;;;;;5.20;2.80;;;;;;;17.50;55.30;94305.56;4840161;29;20086;-64
2022/07/14 04:05:39;;;;;;;4.45;3.00;;;;;;;17.52;55.30;94297.56;4840709;29;20102;-69
2022/07/14 04:08:06;;;;;;;7.05;3.10;;;;;;;17.51;55.47;94296.00;4839999;29;20061;-63
2022/07/14 04:10:32;;;;;;;5.90;3.13;;;;;;;17.52;55.66;94300.31;4840608;29;20050;-64
2022/07/14 04:12:59;;;;;;;5.40;2.90;;;;;;;17.61;55.63;94298.88;4839976;29;20448;-64
2022/07/14 04:15:28;;;;;;;5.70;3.20;;;;;;;17.66;55.48;94296.25;4839915;29;20046;-67
2022/07/14 04:17:55;;;;;;;5.10;3.20;;;;;;;17.69;55.20;94302.94;4840372;29;20050;-64
2022/07/14 04:20:22;;;;;;;6.88;3.25;;;;;;;17.58;55.68;94300.53;4831015;29;20055;-66
2022/07/14 04:22:50;;;;;;;5.60;3.80;;;;;;;17.48;56.39;94290.59;4804911;29;20055;-69
2022/07/14 04:25:17;;;;;;;6.10;3.70;;;;;;;17.31;56.99;94287.22;4819410;29;20068;-69
2022/07/14 04:27:44;;;;;;;5.70;3.70;;;;;;;17.22;57.35;94287.91;4837645;29;20038;-64
2022/07/14 04:30:13;;;;;;;7.40;3.60;;;;;;;17.39;56.92;94287.75;4825749;29;20051;-63
2022/07/14 04:32:40;;;;;;;5.45;3.63;;;;;;;17.50;56.85;94291.69;4839990;29;20046;-64
2022/07/14 04:35:07;;;;;;;5.97;3.72;;;;;;;17.43;56.92;94294.72;4837284;29;20058;-69
2022/07/14 04:37:34;;;;;;;6.60;3.63;;;;;;;17.16;57.65;94298.84;4833602;29;20058;-69
2022/07/14 04:40:02;;;;;;;7.18;4.05;;;;;;;17.22;57.39;94301.00;4833091;29;20046;-64
2022/07/14 04:42:29;;;;;;;6.13;3.90;;;;;;;17.34;57.07;94305.75;4837464;29;20042;-67
2022/07/14 04:44:56;;;;;;;7.30;3.92;;;;;;;17.45;56.87;94299.81;4821556;29;20419;-64
2022/07/14 04:47:23;;;;;;;6.40;3.90;;;;;;;17.51;56.84;94304.34;4835031;29;20058;-63
2022/07/14 04:52:34;;;;;;;7.90;4.32;;;;;;;17.60;56.56;94306.41;4838802;29;20061;-64
2022/07/14 04:55:02;;;;;;;5.90;4.07;;;;;;;17.69;56.43;94312.03;4830262;29;20056;-64
2022/07/14 04:57:28;;;;;;;8.23;4.20;;;;;;;17.80;56.01;94317.16;4836130;29;20046;-64
2022/07/14 04:59:59;;;;;;;8.70;4.22;;;;;;;17.99;55.38;94306.19;4839214;29;20496;-64
2022/07/14 05:02:26;;;;;;;9.23;5.47;;;;;;;18.14;54.93;94307.22;4819982;29;20059;-64
2022/07/14 05:04:53;;;;;;;10.70;4.78;;;;;;;18.41;54.00;94306.59;4830379;29;20129;-65
2022/07/14 05:07:19;;;;;;;7.78;4.72;;;;;;;18.35;54.38;94305.59;4827103;29;20076;-63
2022/07/14 05:09:46;;;;;;;9.65;4.50;;;;;;;18.44;54.14;94308.44;4804382;29;20047;-64
2022/07/14 05:12:16;;;;;;;17.50;4.85;;;;;;;18.43;54.31;94312.47;4828150;29;20152;-68
2022/07/14 05:14:42;;;;;;;7.57;4.40;;;;;;;18.52;54.33;94315.25;4839667;29;20072;-66
2022/07/14 05:17:09;;;;;;;7.43;4.18;;;;;;;18.46;54.71;94313.53;4826473;29;20062;-64
2022/07/14 05:19:46;;;;;;;7.88;4.20;;;;;;;18.72;54.17;94316.88;4839757;29;20068;-64
2022/07/14 05:22:13;;;;;;;10.02;4.75;;;;;;;18.89;54.12;94312.59;4826380;29;20054;-67
2022/07/14 05:24:40;;;;;;;6.78;4.20;;;;;;;18.85;54.11;94309.19;4839548;29;20054;-65
2022/07/14 05:27:07;;;;;;;7.90;4.60;;;;;;;18.84;53.92;94304.88;4829444;29;20364;-64
2022/07/14 05:29:33;;;;;;;8.82;4.55;;;;;;;19.10;53.45;94301.84;4816233;29;20054;-65
2022/07/14 05:32:01;;;;;;;9.25;4.65;;;;;;;20.44;50.53;94297.50;4808059;29;20069;-64
2022/07/14 05:34:29;;;;;;;5.60;4.10;;;;;;;23.16;43.52;94282.53;4806401;29;20047;-64
2022/07/14 05:36:57;;;;;;;7.70;3.95;;;;;;;23.79;41.91;94287.59;4805865;29;20560;-69
2022/07/14 05:39:24;;;;;;;6.13;3.70;;;;;;;23.55;42.14;94296.22;4805552;29;20844;-65
2022/07/14 05:41:50;;;;;;;6.18;4.35;;;;;;;22.86;43.28;94291.00;4834539;29;20160;-66
2022/07/14 05:44:17;;;;;;;5.25;3.83;;;;;;;23.77;41.07;94284.53;4842409;29;20417;-64
2022/07/14 05:46:44;;;;;;;5.00;3.40;;;;;;;23.65;40.97;94280.81;4809514;29;20055;-65
2022/07/14 05:49:10;;;;;;;7.28;3.80;;;;;;;22.44;43.72;94288.59;4820621;29;20058;-69
2022/07/14 05:51:37;;;;;;;8.30;3.90;;;;;;;25.33;38.43;94277.06;4842722;29;20072;-67
2022/07/14 05:54:04;;;;;;;6.10;3.50;;;;;;;27.98;33.42;94274.16;4841460;29;20408;-68
2022/07/14 05:56:31;;;;;;;5.15;3.55;;;;;;;29.35;30.77;94266.88;4842627;29;20050;-63
2022/07/14 05:58:57;;;;;;;6.15;3.80;;;;;;;29.25;30.68;94260.06;4842578;29;20045;-63
2022/07/14 06:01:44;;;;;;;5.30;3.55;;;;;;;29.32;30.61;94258.69;4817791;29;21500;-63
2022/07/14 06:04:11;;;;;;;5.90;3.43;;;;;;;29.54;30.19;94264.09;4806948;29;20090;-65
2022/07/14 06:06:37;;;;;;;5.50;3.33;;;;;;;30.88;28.75;94256.25;4826815;29;20086;-63
2022/07/14 06:09:04;;;;;;;5.40;3.28;;;;;;;29.99;29.23;94259.94;4831198;29;20044;-63
2022/07/14 06:11:31;;;;;;;6.30;3.35;;;;;;;30.61;28.68;94259.78;4817301;29;20068;-63
2022/07/14 06:13:58;;;;;;;7.65;3.65;;;;;;;30.97;28.51;94262.28;4842441;29;20060;-63
2022/07/14 06:16:24;;;;;;;6.20;3.00;;;;;;;33.18;25.37;94249.75;4841545;29;20411;-64
2022/07/14 06:18:51;;;;;;;5.00;3.20;;;;;;;32.90;24.72;94245.53;4832990;29;20591;-66
2022/07/14 06:21:18;;;;;;;4.72;3.10;;;;;;;32.65;26.17;94245.13;4822341;29;20097;-64
2022/07/14 06:23:45;;;;;;;6.63;3.00;;;;;;;33.06;25.03;94246.41;4842173;29;20058;-63
2022/07/14 06:26:12;;;;;;;5.07;2.85;;;;;;;34.18;23.71;94248.19;4841325;29;20054;-64
2022/07/14 06:28:39;;;;;;;5.80;3.03;;;;;;;35.67;22.06;94242.78;4842342;29;20041;-64
2022/07/14 06:31:06;;;;;;;5.78;2.80;;;;;;;36.73;20.69;94225.72;4841732;29;20045;-65
2022/07/14 06:33:33;;;;;;;5.47;2.90;;;;;;;36.07;21.08;94236.34;4840239;29;20076;-66
2022/07/14 06:36:00;;;;;;;4.68;2.90;;;;;;;36.66;21.05;94237.97;4831692;29;20468;-65
2022/07/14 06:38:29;;;;;;;4.72;2.67;;;;;;;36.06;21.50;94231.97;4838995;29;20094;-64
2022/07/14 06:40:55;;;;;;;5.97;2.80;;;;;;;35.47;21.63;94228.16;4842265;29;20488;-65
2022/07/14 06:43:22;;;;;;;8.32;3.28;;;;;;;34.67;23.02;94229.34;4841329;29;20062;-64
2022/07/14 06:45:49;;;;;;;4.68;2.80;;;;;;;33.92;23.69;94237.09;4842087;29;20542;-64
2022/07/14 06:48:17;;;;;;;7.35;3.22;;;;;;;33.89;23.08;94236.13;4841475;29;20054;-64
2022/07/14 06:50:45;;;;;;;7.63;3.10;;;;;;;35.53;21.95;94228.69;4841842;29;20126;-67
2022/07/14 06:53:12;;;;;;;6.07;2.80;;;;;;;35.78;21.79;94233.81;4824932;29;20076;-65
2022/07/14 06:55:38;;;;;;;5.18;2.58;;;;;;;33.86;23.28;94239.34;4841940;29;20042;-64
2022/07/14 06:58:05;;;;;;;5.07;2.70;;;;;;;33.52;23.99;94232.50;4836781;29;20073;-67
2022/07/14 07:00:32;;;;;;;5.43;2.80;;;;;;;35.55;21.94;94239.53;4826711;29;20050;-64
2022/07/14 07:02:59;;;;;;;4.93;2.80;;;;;;;34.40;22.78;94234.59;4809744;29;20076;-63
2022/07/14 07:08:10;;;;;;;5.88;2.63;;;;;;;33.26;24.69;94224.19;4824343;29;20062;-64
2022/07/14 07:10:40;;;;;;;5.35;2.58;;;;;;;35.29;22.30;94235.78;4828932;29;20508;-66
2022/07/14 07:13:08;;;;;;;3.97;2.42;;;;;;;36.09;21.41;94225.84;4829006;29;20046;-68
2022/07/14 07:15:37;;;;;;;7.70;2.20;;;;;;;36.18;20.33;94227.34;4825155;29;20048;-66
2022/07/14 07:18:06;;;;;;;6.17;2.73;;;;;;;36.43;20.23;94223.81;4836573;29;20094;-67
2022/07/14 07:20:34;;;;;;;6.13;2.00;;;;;;;36.74;19.81;94227.22;4833478;29;20492;-63
2022/07/14 07:23:02;;;;;;;4.75;1.70;;;;;;;36.65;18.96;94227.88;4840903;29;20097;-63
2022/07/14 07:25:30;;;;;;;3.95;1.90;;;;;;;35.67;19.91;94219.94;4841006;29;20496;-63
2022/07/14 07:27:58;;;;;;;4.25;1.70;;;;;;;35.22;20.72;94219.47;4841345;29;20416;-65
2022/07/14 07:30:25;;;;;;;6.40;2.10;;;;;;;35.97;20.03;94219.06;4840256;29;20919;-66
2022/07/14 07:32:52;;;;;;;5.22;1.90;;;;;;;35.41;20.39;94219.78;4841285;29;20054;-64
2022/07/14 07:35:19;;;;;;;4.78;1.90;;;;;;;36.63;19.88;94216.25;4833877;29;20068;-65
2022/07/14 07:37:46;;;;;;;5.50;2.00;;;;;;;36.12;19.57;94209.63;4834182;29;20050;-68
2022/07/14 07:40:15;;;;;;;6.63;2.00;;;;;;;36.19;19.56;94206.78;4840196;29;20380;-64
2022/07/14 07:42:42;;;;;;;6.03;2.10;;;;;;;36.36;19.35;94211.06;4841000;29;20050;-63
2022/07/14 07:45:09;;;;;;;3.50;1.77;;;;;;;37.91;18.02;94208.38;4840291;29;20608;-66
2022/07/14 07:47:36;;;;;;;3.65;1.90;;;;;;;36.41;19.85;94195.78;4840834;29;20046;-63
2022/07/14 07:50:04;;;;;;;5.22;1.80;;;;;;;34.88;21.37;94200.63;4827929;29;20046;-63
2022/07/14 07:52:31;;;;;;;4.57;2.00;;;;;;;35.23;21.35;94195.28;4839985;29;20061;-63
2022/07/14 07:54:58;;;;;;;2.60;1.70;;;;;;;35.45;20.62;94187.25;4841005;29;20050;-64
2022/07/14 07:57:39;;;;;;;3.13;1.70;;;;;;;36.30;19.88;94190.53;4839822;29;20042;-65
2022/07/14 08:00:07;;;;;;;2.83;1.73;;;;;;;35.46;20.52;94189.53;4839328;29;20046;-69
2022/07/14 08:02:34;;;;;;;5.40;1.70;;;;;;;35.39;20.22;94188.19;4813905;29;20077;-64
2022/07/14 08:05:00;;;;;;;4.88;2.03;;;;;;;35.61;20.10;94183.75;4815606;29;20407;-64
2022/07/14 08:07:27;;;;;;;4.30;1.70;;;;;;;34.33;21.22;94181.97;4817389;29;20077;-64
2022/07/14 08:09:54;;;;;;;3.58;1.60;;;;;;;34.59;20.76;94183.69;4830285;29;20414;-64
2022/07/14 08:12:25;;;;;;;4.22;1.75;;;;;;;34.99;19.75;94183.16;4837597;29;20707;-64
2022/07/14 08:14:52;;;;;;;2.67;1.70;;;;;;;35.46;19.47;94169.56;4840629;29;20121;-65
2022/07/14 08:17:21;;;;;;;3.55;1.77;;;;;;;36.29;19.57;94163.28;4838507;29;20058;-66
2022/07/14 08:19:48;;;;;;;4.17;1.87;;;;;;;35.39;19.50;94167.47;4829930;29;20407;-64
2022/07/14 08:22:22;;;;;;;4.68;1.70;;;;;;;36.27;18.75;94177.41;4839622;29;20060;-63
2022/07/14 08:24:49;;;;;;;2.72;1.67;;;;;;;35.91;19.48;94164.25;4839920;29;20049;-63
2022/07/14 08:27:16;;;;;;;3.92;1.58;;;;;;;37.16;17.58;94167.19;4839607;29;20054;-64
2022/07/14 08:29:43;;;;;;;2.95;1.70;;;;;;;35.29;19.56;94158.00;4839866;29;20408;-63
2022/07/14 08:32:10;;;;;;;2.60;1.47;;;;;;;37.04;17.59;94162.53;4839531;29;20042;-65
2022/07/14 08:34:37;;;;;;;3.22;1.55;;;;;;;38.32;16.62;94162.97;4813656;29;20051;-64
2022/07/14 08:37:05;;;;;;;2.35;1.40;;;;;;;39.42;15.33;94164.25;4830672;29;20106;-64
2022/07/14 08:39:31;;;;;;;3.28;1.30;;;;;;;39.96;14.71;94146.69;4839990;29;20411;-64
2022/07/14 08:42:03;;;;;;;2.55;1.40;;;;;;;39.70;14.21;94149.13;4840068;29;20038;-64
2022/07/14 08:44:30;;;;;;;2.83;1.40;;;;;;;38.17;15.26;94158.19;4839232;29;20749;-64
2022/07/14 08:46:57;;;;;;;2.20;1.40;;;;;;;39.05;14.55;94147.09;4839634;29;20048;-65
2022/07/14 08:49:24;;;;;;;2.53;1.40;;;;;;;38.25;14.26;94152.34;4838905;29;20077;-65
2022/07/14 08:52:11;;;;;;;3.83;1.40;;;;;;;40.72;13.35;94152.84;4839053;29;20046;-64
2022/07/14 08:54:40;;;;;;;2.85;1.40;;;;;;;42.07;11.67;94149.66;4839647;29;20088;-65
2022/07/14 08:57:07;;;;;;;3.57;1.30;;;;;;;43.19;10.24;94140.00;4822801;29;20134;-69
2022/07/14 08:59:33;;;;;;;2.13;1.15;;;;;;;42.75;10.39;94139.50;4839468;29;20034;-67
2022/07/14 09:02:00;;;;;;;4.20;1.50;;;;;;;42.93;10.61;94139.91;4839116;29;20082;-64
2022/07/14 09:04:27;;;;;;;2.75;1.30;;;;;;;43.31;10.64;94139.97;4839289;29;20127;-67
2022/07/14 09:06:55;;;;;;;3.20;1.23;;;;;;;41.51;11.41;94136.63;4809089;29;20099;-64
2022/07/14 09:09:34;;;;;;;3.27;1.20;;;;;;;41.41;11.87;94129.44;4822513;29;20065;-64
2022/07/14 09:12:04;;;;;;;2.90;1.40;;;;;;;41.58;12.01;94132.03;4835860;29;20052;-62
2022/07/14 09:17:25;;;;;;;3.00;1.35;;;;;;;41.88;11.65;94130.41;4839162;29;20060;-63
2022/07/14 09:20:10;;;;;;;3.65;1.50;;;;;;;41.43;12.29;94136.06;4839323;29;20058;-64
2022/07/14 09:22:40;;;;;;;3.13;1.60;;;;;;;42.27;11.96;94127.13;4838426;29;20041;-67
2022/07/14 09:25:09;;;;;;;2.28;1.50;;;;;;;42.62;11.51;94125.69;4822439;29;20050;-67
2022/07/14 09:27:37;;;;;;;3.25;1.40;;;;;;;41.96;11.62;94118.66;4839383;29;20053;-64
2022/07/14 09:30:06;;;;;;;3.33;1.40;;;;;;;42.91;11.35;94127.47;4818093;29;20065;-64
2022/07/14 09:32:58;;;;;;;3.13;1.50;;;;;;;41.50;11.60;94119.97;4802991;29;20057;-64
2022/07/14 09:35:47;;;;;;;2.73;1.47;;;;;;;39.67;13.63;94133.09;4820556;29;21777;-67
2022/07/14 09:38:20;;;;;;;2.42;1.60;;;;;;;40.32;13.01;94127.72;4828409;29;20050;-64
2022/07/14 09:40:48;;;;;;;2.70;1.50;;;;;;;41.43;12.29;94123.81;4831357;29;20054;-65
2022/07/14 09:43:15;;;;;;;2.20;1.42;;;;;;;40.88;12.77;94110.06;4822438;29;20057;-65
2022/07/14 09:45:46;;;;;;;3.10;1.50;;;;;;;42.72;11.05;94116.91;4839310;29;20064;-65
2022/07/14 09:48:19;;;;;;;4.10;1.50;;;;;;;43.07;11.06;94105.34;4823296;29;20131;-65
2022/07/14 09:50:54;;;;;;;3.03;1.50;;;;;;;41.81;12.08;94116.97;4827996;29;20046;-65
2022/07/14 09:53:33;;;;;;;2.40;1.40;;;;;;;43.83;11.02;94112.69;4838917;29;20511;-66
2022/07/14 09:56:03;;;;;;;2.22;1.42;;;;;;;44.02;9.97;94109.44;4838659;29;20057;-68
2022/07/14 09:58:32;;;;;;;2.80;1.30;;;;;;;43.97;10.51;94104.84;4822904;29;20064;-68
2022/07/14 10:01:07;;;;;;;3.03;1.40;;;;;;;42.28;11.82;94101.94;4838737;29;20062;-66
2022/07/14 10:03:37;;;;;;;2.97;1.50;;;;;;;41.84;11.33;94106.34;4837027;29;20049;-65
2022/07/14 10:06:05;;;;;;;2.83;1.40;;;;;;;43.23;11.21;94106.31;4826644;29;20044;-67
2022/07/14 10:08:57;;;;;;;3.45;1.48;;;;;;;42.67;12.05;94099.34;4838886;29;20523;-68
2022/07/14 10:11:29;;;;;;;5.18;1.40;;;;;;;40.60;13.09;94096.56;4822296;29;20105;-69
2022/07/14 10:13:57;;;;;;;3.50;1.67;;;;;;;41.20;12.72;94092.78;4841850;29;20118;-66
2022/07/14 10:16:29;;;;;;;2.97;1.50;;;;;;;41.85;11.72;94094.16;4813019;29;20527;-66
2022/07/14 10:18:56;;;;;;;2.50;1.50;;;;;;;40.95;12.54;94079.56;4842493;29;20389;-68
2022/07/14 10:21:25;;;;;;;2.85;1.58;;;;;;;41.58;12.87;94085.19;4841816;29;20056;-66
2022/07/14 10:23:52;;;;;;;3.60;1.63;;;;;;;40.97;12.54;94079.72;4842211;29;20061;-65
2022/07/14 10:26:19;;;;;;;2.73;1.50;;;;;;;41.51;12.34;94070.38;4841435;29;20081;-66
2022/07/14 10:28:46;;;;;;;2.78;1.58;;;;;;;42.38;11.83;94067.97;4839910;29;20042;-65
2022/07/14 10:31:13;;;;;;;5.18;1.60;;;;;;;42.40;11.79;94061.56;4805242;29;20058;-68
2022/07/14 10:34:07;;;;;;;2.35;1.40;;;;;;;43.75;11.10;94066.72;4812853;29;20076;-66
2022/07/14 10:36:47;;;;;;;5.32;1.42;;;;;;;39.40;14.20;94060.69;4835851;29;20903;-65
2022/07/14 10:39:38;;;;;;;4.03;1.50;;;;;;;38.94;14.99;94079.56;4819454;29;20496;-65
2022/07/14 10:42:21;;;;;;;3.42;1.60;;;;;;;39.27;14.24;94061.91;4841259;29;20109;-66
2022/07/14 10:44:50;;;;;;;2.83;1.73;;;;;;;40.62;13.46;94056.44;4842089;29;20506;-66
2022/07/14 10:47:19;;;;;;;2.70;1.70;;;;;;;41.44;12.88;94053.31;4831349;29;20080;-65
2022/07/14 10:50:08;;;;;;;2.80;1.75;;;;;;;40.86;13.86;94043.72;4825340;29;20480;-65
2022/07/14 10:52:37;;;;;;;2.70;1.60;;;;;;;38.88;14.48;94059.75;4840978;29;21845;-65
2022/07/14 10:55:21;;;;;;;3.53;1.60;;;;;;;38.68;14.21;94055.38;4841066;29;20052;-66
2022/07/14 10:58:00;;;;;;;2.83;1.90;;;;;;;37.10;15.33;94054.31;4842089;29;20056;-65
2022/07/14 11:00:47;;;;;;;3.38;1.80;;;;;;;36.91;15.01;94055.66;4840668;29;20113;-65
2022/07/14 11:03:33;;;;;;;2.75;1.80;;;;;;;35.57;16.44;94046.38;4839675;29;20050;-65
2022/07/14 11:06:03;;;;;;;3.73;1.97;;;;;;;35.31;17.36;94041.19;4832614;29;20094;-63
2022/07/14 11:09:16;;;;;;;3.33;1.95;;;;;;;35.39;17.38;94033.34;4841584;29;20052;-64
2022/07/14 11:12:09;;;;;;;4.35;2.10;;;;;;;34.89;17.92;94048.16;4840790;29;20840;-64
2022/07/14 11:14:41;;;;;;;3.80;2.00;;;;;;;34.85;18.15;94036.38;4840709;29;20054;-64
2022/07/14 11:17:39;;;;;;;2.95;2.17;;;;;;;34.70;17.99;94011.53;4840948;29;20514;-64
2022/07/14 11:20:11;;;;;;;5.63;2.23;;;;;;;34.55;18.87;94018.03;4841202;29;20049;-65
2022/07/14 11:22:40;;;;;;;7.03;2.10;;;;;;;34.34;19.63;94023.19;4824926;29;20061;-64
2022/07/14 11:25:24;;;;;;;3.30;2.40;;;;;;;34.51;19.43;94028.28;4840526;29;20058;-64
2022/07/14 11:27:51;;;;;;;4.03;2.20;;;;;;;35.11;18.27;94025.84;4841336;29;20041;-67
2022/07/14 11:30:37;;;;;;;3.70;2.30;;;;;;;35.19;18.04;94015.19;4840614;29;20046;-63
2022/07/14 11:33:08;;;;;;;3.43;2.20;;;;;;;33.92;20.04;94017.84;4840719;29;20399;-65
2022/07/14 11:38:34;;;;;;;5.38;2.53;;;;;;;33.58;20.17;94010.38;4830209;29;20225;-64
2022/07/14 11:41:02;;;;;;;3.28;2.20;;;;;;;34.21;19.57;94007.81;4838659;29;20052;-64
2022/07/14 11:43:29;;;;;;;3.13;2.30;;;;;;;34.69;19.65;94001.50;4841105;29;20056;-67
2022/07/14 11:46:18;;;;;;;3.73;2.50;;;;;;;34.68;19.44;93997.09;4840817;29;20061;-64
2022/07/14 11:48:51;;;;;;;3.30;2.30;;;;;;;34.01;19.28;93997.38;4840035;29;20415;-67
2022/07/14 11:51:23;;;;;;;5.05;2.47;;;;;;;34.28;19.67;93994.88;4840469;29;20054;-65
2022/07/14 11:54:04;;;;;;;3.20;2.33;;;;;;;34.03;19.61;93997.56;4840887;29;20053;-63
2022/07/14 11:56:31;;;;;;;3.95;2.30;;;;;;;34.54;20.04;93996.53;4840201;29;21750;-68
2022/07/14 11:59:05;;;;;;;3.33;1.90;;;;;;;34.48;17.36;93990.28;4840791;29;20056;-65
2022/07/14 12:01:34;;;;;;;3.80;1.90;;;;;;;34.46;17.27;93983.66;4840018;29;20202;-64